Vaughan, Mississippi
Current Conditions -  °F | °C
As of 10:50 PM on Saturday 22 Nov 2014 (Local Time) from KJAN Reporting Station
Broken Clouds Broken Clouds  
Wind Chill: 61°   Ceiling: 1800
Heat Index: 61°   Visibility: 10mi
Dew Point: 55°   Wind: 9mph
Humidity: 82%   Direction: 130°SE
Pressure: 29.94"   Gusts: NA
Location:  32.81°N, 90.04°W
Report Text: KJAN 230450Z 13008KT 10SM BKN018 16/13 A2994 RMK AO2 LAST AUGMENTED OBSERVATION UNTIL 1200Z
Loading
Personal Weather Stations






























Interactive Weather Map New forecast layout! Learn more

10-Day Weather Forecast

Advertisements
Track Severe Weather on mobile